createdAt,value
2022-09-28T00:00:21.583Z,3.83
2022-09-28T00:02:48.536Z,3.13
2022-09-28T00:05:15.507Z,2.83
2022-09-28T00:07:42.647Z,3.13
2022-09-28T00:10:10.229Z,3.53
2022-09-28T00:12:37.402Z,3.55
2022-09-28T00:15:06.711Z,3.47
2022-09-28T00:17:34.026Z,4.00
2022-09-28T00:20:01.363Z,4.32
2022-09-28T00:22:28.510Z,4.75
2022-09-28T00:24:55.529Z,4.80
2022-09-28T00:27:22.320Z,3.95
2022-09-28T00:29:49.033Z,4.40
2022-09-28T00:32:17.189Z,5.18
2022-09-28T00:34:48.922Z,4.85
2022-09-28T00:37:15.798Z,5.05
2022-09-28T00:39:43.517Z,5.38
2022-09-28T00:42:14.340Z,4.57
2022-09-28T00:44:48.133Z,5.20
2022-09-28T00:47:39.820Z,5.55
2022-09-28T00:50:11.746Z,5.10
2022-09-28T00:52:43.004Z,5.40
2022-09-28T00:55:14.087Z,5.32
2022-09-28T00:57:46.319Z,5.28
2022-09-28T01:00:14.064Z,4.75
2022-09-28T01:02:42.914Z,5.50
2022-09-28T01:05:11.252Z,4.57
2022-09-28T01:07:39.079Z,5.00
2022-09-28T01:10:06.439Z,4.68
2022-09-28T01:12:33.458Z,5.40
2022-09-28T01:15:01.940Z,4.25
2022-09-28T01:17:42.279Z,4.20
2022-09-28T01:20:43.253Z,4.68
2022-09-28T01:23:39.105Z,4.55
2022-09-28T01:26:40.165Z,4.07
2022-09-28T01:29:16.493Z,4.10
2022-09-28T01:31:48.890Z,4.43
2022-09-28T01:34:20.788Z,4.25
2022-09-28T01:36:50.873Z,4.03
2022-09-28T01:39:22.397Z,3.92
2022-09-28T01:41:53.285Z,4.30
2022-09-28T01:44:23.467Z,4.25
2022-09-28T01:46:52.435Z,4.45
2022-09-28T01:49:23.770Z,3.30
2022-09-28T01:51:55.854Z,4.07
2022-09-28T01:54:28.303Z,4.07
2022-09-28T01:57:02.316Z,4.05
2022-09-28T02:02:00.717Z,4.80
2022-09-28T02:04:32.815Z,4.25
2022-09-28T02:07:05.385Z,4.97
2022-09-28T02:09:36.513Z,4.65
2022-09-28T02:12:10.797Z,4.43
2022-09-28T02:14:41.047Z,5.18
2022-09-28T02:17:09.773Z,7.28
2022-09-28T02:19:36.891Z,5.85
2022-09-28T02:22:14.941Z,5.75
2022-09-28T02:24:52.264Z,5.82
2022-09-28T02:27:30.013Z,5.65
2022-09-28T02:29:56.860Z,5.97
2022-09-28T02:32:26.154Z,6.22
2022-09-28T02:34:53.117Z,5.30
2022-09-28T02:37:19.964Z,6.07
2022-09-28T02:39:46.713Z,5.78
2022-09-28T02:42:21.689Z,6.85
2022-09-28T02:45:06.414Z,6.78
2022-09-28T02:47:46.507Z,5.82
2022-09-28T02:50:21.757Z,5.50
2022-09-28T02:53:19.100Z,5.30
2022-09-28T02:55:57.768Z,5.15
2022-09-28T02:58:38.132Z,5.28
2022-09-28T03:01:16.078Z,5.15
2022-09-28T03:03:48.687Z,5.50
2022-09-28T03:06:23.229Z,5.28
2022-09-28T03:08:55.995Z,5.28
2022-09-28T03:11:30.436Z,5.18
2022-09-28T03:13:59.592Z,5.40
2022-09-28T03:16:27.652Z,5.53
2022-09-28T03:18:54.540Z,5.80
2022-09-28T03:21:21.439Z,4.95
2022-09-28T03:23:48.161Z,5.47
2022-09-28T03:26:16.915Z,5.78
2022-09-28T03:28:43.843Z,5.18
2022-09-28T03:31:12.058Z,5.43
2022-09-28T03:33:38.929Z,5.30
2022-09-28T03:36:06.017Z,5.70
2022-09-28T03:38:32.893Z,5.65
2022-09-28T03:41:00.708Z,4.72
2022-09-28T03:43:28.265Z,5.72
2022-09-28T03:45:55.762Z,6.07
2022-09-28T03:48:30.018Z,6.05
2022-09-28T03:51:00.699Z,5.50
2022-09-28T03:53:29.594Z,7.32
2022-09-28T03:56:01.798Z,6.22
2022-09-28T03:58:28.741Z,5.65
2022-09-28T04:00:55.532Z,6.13
2022-09-28T04:03:22.343Z,6.43
2022-09-28T04:05:51.980Z,6.03
2022-09-28T04:08:19.323Z,5.55
2022-09-28T04:10:46.411Z,6.45
2022-09-28T04:13:13.640Z,5.72
2022-09-28T04:15:40.493Z,6.25
2022-09-28T04:18:10.913Z,6.40
2022-09-28T04:20:37.761Z,6.20
2022-09-28T04:23:05.935Z,5.38
2022-09-28T04:25:32.704Z,6.45
2022-09-28T04:28:17.980Z,7.03
2022-09-28T04:30:46.705Z,5.25
2022-09-28T04:33:13.489Z,5.85
2022-09-28T04:35:40.421Z,6.47
2022-09-28T04:38:08.535Z,5.93
2022-09-28T04:40:35.391Z,6.00
2022-09-28T04:43:02.134Z,7.40
2022-09-28T04:45:28.971Z,6.80
2022-09-28T04:47:55.833Z,5.88
2022-09-28T04:50:22.644Z,6.72
2022-09-28T04:52:49.421Z,6.60
2022-09-28T04:55:17.636Z,6.53
2022-09-28T04:57:44.409Z,6.80
2022-09-28T05:00:12.789Z,7.00
2022-09-28T05:02:39.698Z,7.15
2022-09-28T05:05:07.409Z,7.18
2022-09-28T05:07:34.152Z,7.07
2022-09-28T05:10:01.626Z,6.28
2022-09-28T05:12:29.726Z,6.57
2022-09-28T05:14:56.681Z,7.03
2022-09-28T05:17:23.677Z,6.93
2022-09-28T05:19:50.463Z,6.90
2022-09-28T05:22:17.292Z,7.72
2022-09-28T05:24:44.876Z,7.03
2022-09-28T05:27:11.757Z,7.30
2022-09-28T05:29:39.884Z,6.60
2022-09-28T05:32:06.953Z,6.60
2022-09-28T05:34:34.070Z,6.95
2022-09-28T05:37:00.982Z,6.47
2022-09-28T05:39:27.807Z,5.53
2022-09-28T05:41:55.780Z,5.93
2022-09-28T05:44:22.606Z,5.43
2022-09-28T05:46:52.661Z,6.03
2022-09-28T05:49:19.614Z,6.75
2022-09-28T05:51:46.388Z,7.05
2022-09-28T05:54:13.132Z,5.97
2022-09-28T05:56:39.870Z,7.55
2022-09-28T05:59:06.597Z,7.97
2022-09-28T06:01:33.547Z,7.28
2022-09-28T06:04:01.873Z,9.00
2022-09-28T06:06:28.665Z,10.32
2022-09-28T06:08:55.588Z,10.40
2022-09-28T06:11:23.824Z,10.07
2022-09-28T06:13:53.417Z,9.70
2022-09-28T06:16:20.726Z,8.55
2022-09-28T06:18:48.026Z,9.23
2022-09-28T06:21:16.131Z,11.85
2022-09-28T06:23:48.189Z,9.73
2022-09-28T06:26:16.587Z,12.10
2022-09-28T06:28:43.362Z,11.57
2022-09-28T06:31:10.433Z,11.98
2022-09-28T06:33:38.709Z,10.93
2022-09-28T06:36:05.811Z,11.10
2022-09-28T06:38:34.153Z,10.27
2022-09-28T06:41:01.101Z,11.85
2022-09-28T06:43:34.141Z,12.88
2022-09-28T06:46:02.278Z,13.50
2022-09-28T06:48:29.103Z,11.18
2022-09-28T06:50:55.879Z,8.55
2022-09-28T06:53:23.685Z,8.25
2022-09-28T06:55:51.917Z,8.35
2022-09-28T06:58:20.687Z,7.75
2022-09-28T07:00:48.870Z,7.75
2022-09-28T07:03:17.332Z,6.13
2022-09-28T07:05:45.752Z,5.65
2022-09-28T07:08:14.422Z,7.05
2022-09-28T07:10:42.827Z,6.18
2022-09-28T07:13:33.725Z,11.68
2022-09-28T07:16:00.469Z,6.75
2022-09-28T07:18:29.972Z,9.00
2022-09-28T07:20:57.485Z,9.80
2022-09-28T07:23:27.512Z,9.27
2022-09-28T07:25:54.685Z,7.85
2022-09-28T07:28:23.028Z,6.35
2022-09-28T07:30:49.951Z,6.13
2022-09-28T07:33:17.591Z,7.43
2022-09-28T07:35:50.777Z,6.80
2022-09-28T07:38:17.665Z,7.47
2022-09-28T07:41:03.217Z,8.55
2022-09-28T07:43:31.478Z,8.07
2022-09-28T07:45:58.523Z,7.75
2022-09-28T07:48:25.340Z,7.88
2022-09-28T07:50:54.231Z,7.07
2022-09-28T07:53:22.943Z,8.65
2022-09-28T07:55:54.107Z,8.13
2022-09-28T07:58:21.537Z,10.27
2022-09-28T08:00:50.574Z,9.55
2022-09-28T08:03:18.657Z,9.15
2022-09-28T08:05:46.872Z,11.52
2022-09-28T08:08:14.020Z,9.95
2022-09-28T08:10:46.292Z,7.43
2022-09-28T08:13:15.326Z,7.93
2022-09-28T08:15:42.712Z,7.50
2022-09-28T08:18:11.154Z,6.78
2022-09-28T08:20:56.852Z,6.18
2022-09-28T08:23:23.975Z,6.50
2022-09-28T08:25:55.376Z,6.13
2022-09-28T08:28:23.809Z,6.07
2022-09-28T08:30:51.434Z,5.93
2022-09-28T08:33:23.310Z,5.63
2022-09-28T08:35:57.568Z,5.57
2022-09-28T08:38:24.735Z,5.55
2022-09-28T08:41:06.175Z,5.03
2022-09-28T08:43:51.043Z,5.82
2022-09-28T08:46:23.895Z,4.93
2022-09-28T08:49:23.803Z,5.55
2022-09-28T08:51:51.318Z,5.72
2022-09-28T08:54:28.912Z,5.55
2022-09-28T08:56:59.508Z,5.00
2022-09-28T08:59:31.591Z,5.43
2022-09-28T09:02:01.276Z,5.43
2022-09-28T09:04:30.379Z,5.00
2022-09-28T09:07:21.352Z,4.30
2022-09-28T09:09:56.519Z,5.20
2022-09-28T09:12:36.793Z,4.15
2022-09-28T09:15:21.088Z,3.08
2022-09-28T09:18:07.735Z,2.92
2022-09-28T09:20:41.430Z,2.70
2022-09-28T09:23:15.540Z,2.60
2022-09-28T09:25:49.687Z,2.25
2022-09-28T09:28:45.149Z,1.77
2022-09-28T09:31:26.653Z,1.20
2022-09-28T09:34:11.631Z,1.38
2022-09-28T09:36:54.755Z,0.73
2022-09-28T09:39:37.360Z,1.10
2022-09-28T09:42:15.357Z,1.17
2022-09-28T09:45:03.063Z,1.05
2022-09-28T09:47:33.741Z,1.00
2022-09-28T09:50:08.385Z,1.00
2022-09-28T09:52:46.688Z,1.10
2022-09-28T09:55:18.981Z,1.70
2022-09-28T09:57:53.153Z,1.10
2022-09-28T10:00:20.283Z,1.33
2022-09-28T10:02:48.914Z,0.68
2022-09-28T10:05:21.275Z,1.35
2022-09-28T10:07:53.971Z,0.88
2022-09-28T10:10:26.222Z,0.77
2022-09-28T10:12:54.017Z,0.60
2022-09-28T10:15:24.674Z,0.65
2022-09-28T10:17:52.416Z,0.80
2022-09-28T10:20:20.097Z,0.80
2022-09-28T10:22:47.174Z,0.80
2022-09-28T10:25:15.755Z,1.33
2022-09-28T10:27:49.233Z,0.63
2022-09-28T10:30:19.066Z,1.02
2022-09-28T10:32:47.305Z,0.77
2022-09-28T10:35:22.595Z,0.75
2022-09-28T10:37:54.206Z,0.88
2022-09-28T10:40:31.723Z,1.23
2022-09-28T10:43:03.289Z,1.00
2022-09-28T10:45:35.395Z,0.90
2022-09-28T10:48:06.038Z,1.58
2022-09-28T10:50:34.405Z,0.70
2022-09-28T10:53:17.318Z,0.85
2022-09-28T10:55:57.462Z,0.70
2022-09-28T10:58:32.040Z,0.75
2022-09-28T11:01:02.862Z,0.80
2022-09-28T11:03:30.892Z,0.60
2022-09-28T11:06:00.799Z,1.23
2022-09-28T11:08:31.895Z,0.80
2022-09-28T11:11:05.963Z,1.02
2022-09-28T11:13:48.064Z,0.80
2022-09-28T11:16:24.834Z,0.63
2022-09-28T11:18:51.739Z,0.57
2022-09-28T11:21:22.788Z,0.60
2022-09-28T11:23:58.323Z,0.80
2022-09-28T11:26:26.950Z,0.52
2022-09-28T11:28:54.155Z,0.93
2022-09-28T11:31:27.350Z,0.50
2022-09-28T11:34:04.959Z,0.40
2022-09-28T11:36:45.956Z,0.57
2022-09-28T11:39:22.761Z,0.60
2022-09-28T11:42:01.420Z,0.98
2022-09-28T11:44:38.105Z,0.47
2022-09-28T11:47:26.908Z,0.90
2022-09-28T11:50:00.568Z,0.77
2022-09-28T11:52:34.421Z,0.60
2022-09-28T11:57:37.867Z,0.90
2022-09-28T12:00:10.761Z,0.93
2022-09-28T12:02:43.004Z,4.40
2022-09-28T12:05:20.751Z,1.02
2022-09-28T12:07:53.186Z,0.68
2022-09-28T12:10:27.193Z,0.60
2022-09-28T12:13:01.350Z,1.00
2022-09-28T12:15:47.227Z,0.80
2022-09-28T12:18:28.702Z,0.65
2022-09-28T12:21:05.189Z,0.70
2022-09-28T12:23:35.893Z,1.00
2022-09-28T12:26:05.463Z,0.80
2022-09-28T12:28:39.195Z,0.75
2022-09-28T12:31:15.940Z,0.90
2022-09-28T12:33:48.114Z,0.73
2022-09-28T12:36:30.273Z,0.70
2022-09-28T12:39:24.047Z,0.80
2022-09-28T12:42:11.999Z,1.10
2022-09-28T12:44:59.737Z,0.80
2022-09-28T12:48:14.383Z,0.60
2022-09-28T12:50:57.236Z,1.02
2022-09-28T12:53:39.262Z,0.65
2022-09-28T12:56:12.016Z,0.60
2022-09-28T12:59:00.043Z,1.63
2022-09-28T13:02:01.532Z,0.47
2022-09-28T13:04:53.016Z,0.70
2022-09-28T13:07:29.707Z,0.73
2022-09-28T13:10:13.997Z,0.60
2022-09-28T13:12:52.998Z,0.80
2022-09-28T13:15:34.328Z,0.80
2022-09-28T13:18:10.995Z,0.90
2022-09-28T13:21:08.024Z,1.33
2022-09-28T13:23:38.566Z,1.13
2022-09-28T13:26:14.506Z,0.75
2022-09-28T13:28:43.167Z,0.70
2022-09-28T13:31:11.473Z,0.80
2022-09-28T13:33:43.968Z,1.00
2022-09-28T13:36:37.125Z,0.80
2022-09-28T13:39:04.424Z,0.55
2022-09-28T13:41:33.374Z,0.70
2022-09-28T13:44:24.399Z,0.55
2022-09-28T13:47:08.607Z,0.68
2022-09-28T13:49:40.562Z,0.68
2022-09-28T13:52:12.491Z,0.80
2022-09-28T13:55:00.148Z,0.98
2022-09-28T13:57:37.278Z,0.98
2022-09-28T14:00:16.904Z,0.47
2022-09-28T14:02:47.849Z,0.77
2022-09-28T14:05:46.569Z,0.80
2022-09-28T14:08:30.116Z,0.80
2022-09-28T14:10:58.004Z,0.70
2022-09-28T14:13:59.996Z,0.88
2022-09-28T14:16:28.626Z,0.60
2022-09-28T14:18:57.910Z,1.17
2022-09-28T14:22:10.426Z,0.88
2022-09-28T14:24:58.510Z,0.70
2022-09-28T14:27:48.936Z,0.95
2022-09-28T14:30:22.475Z,1.15
2022-09-28T14:32:54.787Z,0.77
2022-09-28T14:35:31.252Z,0.88
2022-09-28T14:38:22.454Z,0.98
2022-09-28T14:41:09.427Z,0.65
2022-09-28T14:43:57.330Z,1.35
2022-09-28T14:46:32.768Z,0.57
2022-09-28T14:49:04.287Z,1.15
2022-09-28T14:52:05.207Z,0.90
2022-09-28T14:54:45.281Z,0.70
2022-09-28T14:57:19.489Z,1.30
2022-09-28T14:59:47.837Z,1.40
2022-09-28T15:02:24.740Z,0.98
2022-09-28T15:04:54.964Z,3.63
2022-09-28T15:07:27.123Z,1.42
2022-09-28T15:09:55.569Z,0.88
2022-09-28T15:12:26.609Z,0.70
2022-09-28T15:14:58.473Z,0.68
2022-09-28T15:17:28.526Z,0.80
2022-09-28T15:20:25.550Z,0.60
2022-09-28T15:22:57.284Z,0.63
2022-09-28T15:25:26.845Z,1.20
2022-09-28T15:27:57.057Z,1.20
2022-09-28T15:30:27.535Z,0.82
2022-09-28T15:32:56.851Z,1.08
2022-09-28T15:35:26.358Z,0.63
2022-09-28T15:37:55.036Z,1.08
2022-09-28T15:40:31.770Z,1.08
2022-09-28T15:43:00.299Z,1.17
2022-09-28T15:45:30.823Z,1.00
2022-09-28T15:48:19.113Z,1.60
2022-09-28T15:50:59.215Z,2.03
2022-09-28T15:53:26.957Z,2.00
2022-09-28T15:56:03.584Z,2.15
2022-09-28T15:58:31.695Z,1.13
2022-09-28T16:01:27.740Z,1.38
2022-09-28T16:03:55.159Z,2.50
2022-09-28T16:06:23.103Z,1.65
2022-09-28T16:08:49.922Z,1.60
2022-09-28T16:11:21.252Z,2.03
2022-09-28T16:13:58.011Z,1.80
2022-09-28T16:16:29.423Z,1.35
2022-09-28T16:18:58.745Z,1.30
2022-09-28T16:21:34.812Z,1.35
2022-09-28T16:24:01.738Z,1.15
2022-09-28T16:26:32.548Z,1.58
2022-09-28T16:29:05.899Z,1.45
2022-09-28T16:31:34.574Z,1.08
2022-09-28T16:34:11.711Z,0.93
2022-09-28T16:36:43.630Z,2.08
2022-09-28T16:39:11.928Z,1.50
2022-09-28T16:41:40.699Z,1.50
2022-09-28T16:44:24.448Z,1.60
2022-09-28T16:46:55.073Z,1.17
2022-09-28T16:49:23.840Z,0.90
2022-09-28T16:51:53.920Z,1.98
2022-09-28T16:54:41.001Z,1.90
2022-09-28T16:57:10.935Z,2.00
2022-09-28T16:59:39.100Z,2.83
2022-09-28T17:02:42.112Z,1.88
2022-09-28T17:05:06.962Z,2.03
2022-09-28T17:07:34.280Z,2.38
2022-09-28T17:10:01.106Z,2.05
2022-09-28T17:12:28.985Z,1.48
2022-09-28T17:14:57.644Z,1.40
2022-09-28T17:17:25.313Z,2.15
2022-09-28T17:19:52.106Z,1.88
2022-09-28T17:22:18.905Z,2.33
2022-09-28T17:24:46.188Z,2.53
2022-09-28T17:27:18.760Z,2.83
2022-09-28T17:29:45.587Z,3.38
2022-09-28T17:32:18.638Z,2.80
2022-09-28T17:34:55.958Z,2.90
2022-09-28T17:37:28.578Z,3.33
2022-09-28T17:39:55.389Z,2.10
2022-09-28T17:42:22.221Z,3.08
2022-09-28T17:44:49.082Z,2.80
2022-09-28T17:47:17.579Z,3.22
2022-09-28T17:49:46.092Z,3.17
2022-09-28T17:52:13.163Z,2.83
2022-09-28T17:54:39.972Z,3.50
2022-09-28T17:57:06.711Z,3.67
2022-09-28T17:59:33.514Z,3.03
2022-09-28T18:02:02.372Z,2.08
2022-09-28T18:04:50.864Z,1.80
2022-09-28T18:07:17.858Z,2.10
2022-09-28T18:09:44.658Z,2.47
2022-09-28T18:12:11.562Z,2.20
2022-09-28T18:14:39.915Z,2.78
2022-09-28T18:17:06.771Z,2.05
2022-09-28T18:19:34.913Z,2.67
2022-09-28T18:22:01.914Z,2.28
2022-09-28T18:24:28.863Z,2.55
2022-09-28T18:26:55.685Z,3.13
2022-09-28T18:29:22.461Z,3.05
2022-09-28T18:31:49.457Z,2.67
2022-09-28T18:34:16.448Z,2.95
2022-09-28T18:36:44.800Z,2.65
2022-09-28T18:39:11.706Z,3.78
2022-09-28T18:41:38.650Z,6.68
2022-09-28T18:44:05.511Z,8.45
2022-09-28T18:46:36.380Z,7.82
2022-09-28T18:49:03.866Z,7.25
2022-09-28T18:51:30.810Z,7.57
2022-09-28T18:54:00.556Z,9.30
2022-09-28T18:56:27.377Z,9.07
2022-09-28T18:58:54.326Z,7.75
2022-09-28T19:01:30.817Z,3.97
2022-09-28T19:03:59.179Z,3.90
2022-09-28T19:06:26.184Z,3.60
2022-09-28T19:08:55.705Z,3.67
2022-09-28T19:11:25.150Z,3.65
2022-09-28T19:13:53.541Z,3.78
2022-09-28T19:16:22.155Z,4.13
2022-09-28T19:18:50.112Z,4.13
2022-09-28T19:21:17.148Z,4.53
2022-09-28T19:23:48.896Z,4.43
2022-09-28T19:26:20.772Z,3.95
2022-09-28T19:28:49.346Z,4.50
2022-09-28T19:31:16.397Z,4.18
2022-09-28T19:33:46.435Z,4.15
2022-09-28T19:36:15.767Z,4.70
2022-09-28T19:38:42.657Z,5.10
2022-09-28T19:41:10.534Z,5.03
2022-09-28T19:43:38.313Z,5.13
2022-09-28T19:46:07.071Z,5.57
2022-09-28T19:48:34.628Z,5.93
2022-09-28T19:51:03.662Z,5.10
2022-09-28T19:53:32.429Z,5.00
2022-09-28T19:56:03.149Z,5.88
2022-09-28T19:58:32.407Z,5.85
2022-09-28T20:00:59.536Z,6.00
2022-09-28T20:03:28.336Z,5.78
2022-09-28T20:05:58.929Z,5.45
2022-09-28T20:08:26.280Z,5.55
2022-09-28T20:10:54.692Z,6.47
2022-09-28T20:13:22.069Z,5.78
2022-09-28T20:15:48.909Z,6.85
2022-09-28T20:18:16.016Z,6.75
2022-09-28T20:20:44.270Z,6.78
2022-09-28T20:23:11.804Z,6.43
2022-09-28T20:25:38.604Z,5.75
2022-09-28T20:28:05.567Z,5.65
2022-09-28T20:30:33.128Z,5.90
2022-09-28T20:33:00.155Z,6.55
2022-09-28T20:35:33.082Z,5.57
2022-09-28T20:38:08.076Z,6.50
2022-09-28T20:40:38.217Z,5.82
2022-09-28T20:43:06.591Z,5.88
2022-09-28T20:45:35.428Z,6.10
2022-09-28T20:48:06.451Z,7.75
2022-09-28T20:50:34.130Z,7.70
2022-09-28T20:53:02.368Z,6.82
2022-09-28T20:55:29.167Z,7.75
2022-09-28T20:57:55.907Z,8.15
2022-09-28T21:00:22.724Z,8.85
2022-09-28T21:02:53.110Z,7.28
2022-09-28T21:05:19.989Z,7.63
2022-09-28T21:07:46.841Z,7.53
2022-09-28T21:10:15.195Z,7.65
2022-09-28T21:12:42.026Z,6.57
2022-09-28T21:15:09.653Z,7.45
2022-09-28T21:17:36.458Z,6.97
2022-09-28T21:20:04.312Z,6.82
2022-09-28T21:22:31.080Z,6.53
2022-09-28T21:24:57.838Z,5.85
2022-09-28T21:27:26.035Z,5.97
2022-09-28T21:29:52.754Z,7.63
2022-09-28T21:32:19.594Z,7.30
2022-09-28T21:34:46.351Z,7.43
2022-09-28T21:37:13.113Z,6.78
2022-09-28T21:39:39.854Z,6.05
2022-09-28T21:42:06.780Z,6.00
2022-09-28T21:44:34.934Z,5.95
2022-09-28T21:47:01.736Z,5.50
2022-09-28T21:49:28.549Z,5.22
2022-09-28T21:51:55.469Z,4.82
2022-09-28T21:54:22.296Z,4.65
2022-09-28T21:56:49.003Z,4.90
2022-09-28T21:59:15.767Z,5.80
2022-09-28T22:01:44.301Z,4.40
2022-09-28T22:04:11.182Z,4.70
2022-09-28T22:06:37.966Z,4.30
2022-09-28T22:09:05.444Z,4.38
2022-09-28T22:11:32.247Z,4.82
2022-09-28T22:14:00.230Z,4.60
2022-09-28T22:16:29.547Z,3.78
2022-09-28T22:18:58.205Z,4.68
2022-09-28T22:21:27.156Z,4.75
2022-09-28T22:23:54.044Z,4.43
2022-09-28T22:26:23.482Z,4.90
2022-09-28T22:28:52.002Z,5.10
2022-09-28T22:31:22.126Z,4.97
2022-09-28T22:33:49.212Z,4.38
2022-09-28T22:36:17.436Z,4.85
2022-09-28T22:38:44.878Z,4.85
2022-09-28T22:41:12.580Z,3.97
2022-09-28T22:43:39.295Z,4.03
2022-09-28T22:46:08.575Z,3.97
2022-09-28T22:48:35.816Z,4.15
2022-09-28T22:51:04.054Z,4.38
2022-09-28T22:53:32.913Z,3.88
2022-09-28T22:56:01.625Z,4.45
2022-09-28T22:58:28.337Z,3.70
2022-09-28T23:00:57.878Z,3.97
2022-09-28T23:03:24.736Z,4.43
2022-09-28T23:05:54.882Z,3.47
2022-09-28T23:08:22.929Z,3.45
2022-09-28T23:10:51.719Z,3.42
2022-09-28T23:13:18.545Z,3.78
2022-09-28T23:15:55.034Z,3.45
2022-09-28T23:18:21.898Z,3.53
2022-09-28T23:20:53.155Z,4.25
2022-09-28T23:23:19.910Z,4.25
2022-09-28T23:25:46.712Z,3.90
2022-09-28T23:28:15.167Z,4.05
2022-09-28T23:30:41.943Z,3.80
2022-09-28T23:33:11.877Z,4.45
2022-09-28T23:35:38.703Z,4.00
2022-09-28T23:38:05.498Z,4.95
2022-09-28T23:40:32.342Z,3.63
2022-09-28T23:42:59.110Z,3.70
2022-09-28T23:45:27.389Z,4.35
2022-09-28T23:47:54.644Z,3.47
2022-09-28T23:50:21.437Z,3.95
2022-09-28T23:52:51.825Z,3.75
2022-09-28T23:55:19.157Z,4.07
2022-09-28T23:57:46.313Z,3.42
